sensor_id;sensor_type;location;lat;lon;timestamp;P1;durP1;ratioP1;P2;durP2;ratioP2
6434;SDS011;3250;42.694;23.278;2023-04-21T00:00:54;12.80;;;7.20;;
6434;SDS011;3250;42.694;23.278;2023-04-21T00:03:20;10.23;;;7.35;;
6434;SDS011;3250;42.694;23.278;2023-04-21T00:05:47;12.37;;;5.93;;
6434;SDS011;3250;42.694;23.278;2023-04-21T00:08:16;9.50;;;6.23;;
6434;SDS011;3250;42.694;23.278;2023-04-21T00:10:42;8.90;;;5.20;;
6434;SDS011;3250;42.694;23.278;2023-04-21T00:13:08;10.23;;;6.60;;
6434;SDS011;3250;42.694;23.278;2023-04-21T00:15:34;8.30;;;5.80;;
6434;SDS011;3250;42.694;23.278;2023-04-21T00:18:00;8.03;;;5.80;;
6434;SDS011;3250;42.694;23.278;2023-04-21T00:20:25;9.33;;;6.10;;
6434;SDS011;3250;42.694;23.278;2023-04-21T00:22:57;8.93;;;5.80;;
6434;SDS011;3250;42.694;23.278;2023-04-21T00:25:23;9.63;;;5.87;;
6434;SDS011;3250;42.694;23.278;2023-04-21T00:27:49;13.13;;;7.55;;
6434;SDS011;3250;42.694;23.278;2023-04-21T00:30:15;12.23;;;7.00;;
6434;SDS011;3250;42.694;23.278;2023-04-21T00:32:41;11.70;;;6.13;;
6434;SDS011;3250;42.694;23.278;2023-04-21T00:35:07;13.13;;;7.17;;
6434;SDS011;3250;42.694;23.278;2023-04-21T00:37:33;13.00;;;7.17;;
6434;SDS011;3250;42.694;23.278;2023-04-21T00:39:58;23.27;;;15.00;;
6434;SDS011;3250;42.694;23.278;2023-04-21T00:42:24;17.73;;;10.30;;
6434;SDS011;3250;42.694;23.278;2023-04-21T00:44:49;10.60;;;6.93;;
6434;SDS011;3250;42.694;23.278;2023-04-21T00:47:16;11.17;;;6.00;;
6434;SDS011;3250;42.694;23.278;2023-04-21T00:49:41;8.53;;;6.37;;
6434;SDS011;3250;42.694;23.278;2023-04-21T00:52:07;8.87;;;6.83;;
6434;SDS011;3250;42.694;23.278;2023-04-21T00:54:36;13.53;;;6.47;;
6434;SDS011;3250;42.694;23.278;2023-04-21T00:57:02;12.40;;;6.60;;
6434;SDS011;3250;42.694;23.278;2023-04-21T00:59:29;10.03;;;6.30;;
6434;SDS011;3250;42.694;23.278;2023-04-21T01:01:54;12.40;;;6.07;;
6434;SDS011;3250;42.694;23.278;2023-04-21T01:04:20;11.87;;;6.90;;
6434;SDS011;3250;42.694;23.278;2023-04-21T01:06:46;8.97;;;6.30;;
6434;SDS011;3250;42.694;23.278;2023-04-21T01:09:11;10.67;;;6.33;;
6434;SDS011;3250;42.694;23.278;2023-04-21T01:11:37;8.50;;;5.90;;
6434;SDS011;3250;42.694;23.278;2023-04-21T01:14:03;10.18;;;7.50;;
6434;SDS011;3250;42.694;23.278;2023-04-21T01:16:29;10.73;;;7.07;;
6434;SDS011;3250;42.694;23.278;2023-04-21T01:18:57;13.87;;;8.07;;
6434;SDS011;3250;42.694;23.278;2023-04-21T01:21:23;11.80;;;7.20;;
6434;SDS011;3250;42.694;23.278;2023-04-21T01:23:51;11.47;;;7.00;;
6434;SDS011;3250;42.694;23.278;2023-04-21T01:26:17;7.93;;;5.67;;
6434;SDS011;3250;42.694;23.278;2023-04-21T01:28:43;10.13;;;6.60;;
6434;SDS011;3250;42.694;23.278;2023-04-21T01:31:08;12.37;;;6.60;;
6434;SDS011;3250;42.694;23.278;2023-04-21T01:33:34;9.73;;;5.83;;
6434;SDS011;3250;42.694;23.278;2023-04-21T01:35:59;9.10;;;5.87;;
6434;SDS011;3250;42.694;23.278;2023-04-21T01:38:25;9.53;;;6.07;;
6434;SDS011;3250;42.694;23.278;2023-04-21T01:40:52;9.57;;;5.73;;
6434;SDS011;3250;42.694;23.278;2023-04-21T01:43:19;7.50;;;5.50;;
6434;SDS011;3250;42.694;23.278;2023-04-21T01:45:47;6.73;;;5.20;;
6434;SDS011;3250;42.694;23.278;2023-04-21T01:48:12;10.43;;;5.97;;
6434;SDS011;3250;42.694;23.278;2023-04-21T01:50:38;9.30;;;5.53;;
6434;SDS011;3250;42.694;23.278;2023-04-21T01:53:03;8.47;;;6.00;;
6434;SDS011;3250;42.694;23.278;2023-04-21T01:55:29;8.27;;;5.43;;
6434;SDS011;3250;42.694;23.278;2023-04-21T01:57:55;7.93;;;5.57;;
6434;SDS011;3250;42.694;23.278;2023-04-21T02:00:23;9.27;;;5.90;;
6434;SDS011;3250;42.694;23.278;2023-04-21T02:02:48;8.40;;;5.17;;
6434;SDS011;3250;42.694;23.278;2023-04-21T02:05:14;9.83;;;5.63;;
6434;SDS011;3250;42.694;23.278;2023-04-21T02:07:39;9.17;;;5.90;;
6434;SDS011;3250;42.694;23.278;2023-04-21T02:10:05;11.23;;;6.00;;
6434;SDS011;3250;42.694;23.278;2023-04-21T02:12:30;12.97;;;5.90;;
6434;SDS011;3250;42.694;23.278;2023-04-21T02:14:56;8.73;;;5.93;;
6434;SDS011;3250;42.694;23.278;2023-04-21T02:17:21;8.70;;;6.07;;
6434;SDS011;3250;42.694;23.278;2023-04-21T02:19:47;10.63;;;6.07;;
6434;SDS011;3250;42.694;23.278;2023-04-21T02:22:12;11.13;;;6.73;;
6434;SDS011;3250;42.694;23.278;2023-04-21T02:24:38;8.10;;;5.63;;
6434;SDS011;3250;42.694;23.278;2023-04-21T02:27:04;10.57;;;6.53;;
6434;SDS011;3250;42.694;23.278;2023-04-21T02:29:30;9.60;;;5.97;;
6434;SDS011;3250;42.694;23.278;2023-04-21T02:31:56;10.83;;;6.00;;
6434;SDS011;3250;42.694;23.278;2023-04-21T02:34:21;9.80;;;5.43;;
6434;SDS011;3250;42.694;23.278;2023-04-21T02:36:47;10.43;;;6.63;;
6434;SDS011;3250;42.694;23.278;2023-04-21T02:39:12;9.63;;;5.53;;
6434;SDS011;3250;42.694;23.278;2023-04-21T02:41:38;10.53;;;6.20;;
6434;SDS011;3250;42.694;23.278;2023-04-21T02:44:03;10.17;;;6.20;;
6434;SDS011;3250;42.694;23.278;2023-04-21T02:46:29;9.00;;;6.30;;
6434;SDS011;3250;42.694;23.278;2023-04-21T02:48:54;10.47;;;6.50;;
6434;SDS011;3250;42.694;23.278;2023-04-21T02:51:20;11.80;;;7.00;;
6434;SDS011;3250;42.694;23.278;2023-04-21T02:53:46;8.57;;;5.87;;
6434;SDS011;3250;42.694;23.278;2023-04-21T02:56:11;9.10;;;6.40;;
6434;SDS011;3250;42.694;23.278;2023-04-21T02:58:37;7.60;;;6.13;;
6434;SDS011;3250;42.694;23.278;2023-04-21T03:01:03;9.50;;;7.00;;
6434;SDS011;3250;42.694;23.278;2023-04-21T03:03:29;12.17;;;6.80;;
6434;SDS011;3250;42.694;23.278;2023-04-21T03:05:59;9.20;;;6.70;;
6434;SDS011;3250;42.694;23.278;2023-04-21T03:08:26;8.77;;;5.60;;
6434;SDS011;3250;42.694;23.278;2023-04-21T03:10:51;12.67;;;8.00;;
6434;SDS011;3250;42.694;23.278;2023-04-21T03:13:17;9.63;;;6.73;;
6434;SDS011;3250;42.694;23.278;2023-04-21T03:15:42;10.83;;;7.37;;
6434;SDS011;3250;42.694;23.278;2023-04-21T03:18:08;12.57;;;7.60;;
6434;SDS011;3250;42.694;23.278;2023-04-21T03:20:34;14.73;;;8.03;;
6434;SDS011;3250;42.694;23.278;2023-04-21T03:22:59;13.87;;;6.83;;
6434;SDS011;3250;42.694;23.278;2023-04-21T03:25:24;12.17;;;7.00;;
6434;SDS011;3250;42.694;23.278;2023-04-21T03:27:53;9.20;;;6.47;;
6434;SDS011;3250;42.694;23.278;2023-04-21T03:30:20;7.93;;;5.70;;
6434;SDS011;3250;42.694;23.278;2023-04-21T03:32:45;8.70;;;5.90;;
6434;SDS011;3250;42.694;23.278;2023-04-21T03:35:11;8.80;;;6.07;;
6434;SDS011;3250;42.694;23.278;2023-04-21T03:37:36;9.23;;;5.80;;
6434;SDS011;3250;42.694;23.278;2023-04-21T03:40:02;9.20;;;6.13;;
6434;SDS011;3250;42.694;23.278;2023-04-21T03:42:31;10.23;;;5.77;;
6434;SDS011;3250;42.694;23.278;2023-04-21T03:45:00;11.27;;;7.07;;
6434;SDS011;3250;42.694;23.278;2023-04-21T03:47:29;8.90;;;6.37;;
6434;SDS011;3250;42.694;23.278;2023-04-21T03:49:54;10.33;;;6.87;;
6434;SDS011;3250;42.694;23.278;2023-04-21T03:52:20;9.73;;;6.87;;
6434;SDS011;3250;42.694;23.278;2023-04-21T03:54:45;15.10;;;6.40;;
6434;SDS011;3250;42.694;23.278;2023-04-21T03:57:11;10.57;;;6.60;;
6434;SDS011;3250;42.694;23.278;2023-04-21T03:59:36;12.13;;;6.33;;
6434;SDS011;3250;42.694;23.278;2023-04-21T04:02:01;9.20;;;6.60;;
6434;SDS011;3250;42.694;23.278;2023-04-21T04:04:27;10.07;;;6.40;;
6434;SDS011;3250;42.694;23.278;2023-04-21T04:06:52;8.67;;;6.47;;
6434;SDS011;3250;42.694;23.278;2023-04-21T04:09:18;15.33;;;6.77;;
6434;SDS011;3250;42.694;23.278;2023-04-21T04:11:43;20.43;;;7.63;;
6434;SDS011;3250;42.694;23.278;2023-04-21T04:14:08;11.60;;;7.50;;
6434;SDS011;3250;42.694;23.278;2023-04-21T04:16:34;9.43;;;6.60;;
6434;SDS011;3250;42.694;23.278;2023-04-21T04:19:00;12.20;;;7.10;;
6434;SDS011;3250;42.694;23.278;2023-04-21T04:21:25;12.90;;;8.03;;
6434;SDS011;3250;42.694;23.278;2023-04-21T04:23:52;13.53;;;7.70;;
6434;SDS011;3250;42.694;23.278;2023-04-21T04:26:18;12.23;;;7.10;;
6434;SDS011;3250;42.694;23.278;2023-04-21T04:28:44;10.90;;;7.63;;
6434;SDS011;3250;42.694;23.278;2023-04-21T04:31:09;10.97;;;7.53;;
6434;SDS011;3250;42.694;23.278;2023-04-21T04:33:35;10.97;;;7.63;;
6434;SDS011;3250;42.694;23.278;2023-04-21T04:36:00;14.80;;;7.87;;
6434;SDS011;3250;42.694;23.278;2023-04-21T04:38:25;12.83;;;8.00;;
6434;SDS011;3250;42.694;23.278;2023-04-21T04:40:55;13.40;;;7.20;;
6434;SDS011;3250;42.694;23.278;2023-04-21T04:43:26;20.17;;;8.80;;
6434;SDS011;3250;42.694;23.278;2023-04-21T04:45:51;17.60;;;8.27;;
6434;SDS011;3250;42.694;23.278;2023-04-21T04:48:17;21.03;;;8.47;;
6434;SDS011;3250;42.694;23.278;2023-04-21T04:50:42;12.27;;;7.23;;
6434;SDS011;3250;42.694;23.278;2023-04-21T04:53:08;11.80;;;7.37;;
6434;SDS011;3250;42.694;23.278;2023-04-21T04:55:34;12.40;;;6.70;;
6434;SDS011;3250;42.694;23.278;2023-04-21T04:57:59;12.30;;;7.33;;
6434;SDS011;3250;42.694;23.278;2023-04-21T05:00:25;11.50;;;6.77;;
6434;SDS011;3250;42.694;23.278;2023-04-21T05:02:52;8.90;;;6.57;;
6434;SDS011;3250;42.694;23.278;2023-04-21T05:05:18;11.13;;;7.43;;
6434;SDS011;3250;42.694;23.278;2023-04-21T05:07:44;22.13;;;14.23;;
6434;SDS011;3250;42.694;23.278;2023-04-21T05:10:09;19.00;;;13.47;;
6434;SDS011;3250;42.694;23.278;2023-04-21T05:12:35;33.60;;;14.73;;
6434;SDS011;3250;42.694;23.278;2023-04-21T05:15:00;18.83;;;11.47;;
6434;SDS011;3250;42.694;23.278;2023-04-21T05:17:26;16.53;;;10.17;;
6434;SDS011;3250;42.694;23.278;2023-04-21T05:19:52;14.17;;;8.57;;
6434;SDS011;3250;42.694;23.278;2023-04-21T05:22:18;10.33;;;7.17;;
6434;SDS011;3250;42.694;23.278;2023-04-21T05:24:43;13.17;;;7.30;;
6434;SDS011;3250;42.694;23.278;2023-04-21T05:27:09;12.53;;;6.73;;
6434;SDS011;3250;42.694;23.278;2023-04-21T05:29:34;13.00;;;7.90;;
6434;SDS011;3250;42.694;23.278;2023-04-21T05:32:00;9.03;;;6.03;;
6434;SDS011;3250;42.694;23.278;2023-04-21T05:34:25;11.20;;;8.43;;
6434;SDS011;3250;42.694;23.278;2023-04-21T05:36:51;9.90;;;6.40;;
6434;SDS011;3250;42.694;23.278;2023-04-21T05:39:16;10.20;;;5.83;;
6434;SDS011;3250;42.694;23.278;2023-04-21T05:41:42;11.63;;;6.67;;
6434;SDS011;3250;42.694;23.278;2023-04-21T05:44:07;9.17;;;6.17;;
6434;SDS011;3250;42.694;23.278;2023-04-21T05:46:33;13.33;;;5.97;;
6434;SDS011;3250;42.694;23.278;2023-04-21T05:48:59;10.80;;;6.10;;
6434;SDS011;3250;42.694;23.278;2023-04-21T05:51:26;10.97;;;6.37;;
6434;SDS011;3250;42.694;23.278;2023-04-21T05:53:51;9.73;;;6.40;;
6434;SDS011;3250;42.694;23.278;2023-04-21T05:56:17;11.52;;;6.88;;
6434;SDS011;3250;42.694;23.278;2023-04-21T05:58:42;13.05;;;6.03;;
6434;SDS011;3250;42.694;23.278;2023-04-21T06:01:08;8.45;;;4.95;;
6434;SDS011;3250;42.694;23.278;2023-04-21T06:03:33;6.63;;;4.88;;
6434;SDS011;3250;42.694;23.278;2023-04-21T06:05:59;8.57;;;5.70;;
6434;SDS011;3250;42.694;23.278;2023-04-21T06:08:26;6.40;;;4.80;;
6434;SDS011;3250;42.694;23.278;2023-04-21T06:10:51;9.00;;;5.07;;
6434;SDS011;3250;42.694;23.278;2023-04-21T06:13:17;9.23;;;7.03;;
6434;SDS011;3250;42.694;23.278;2023-04-21T06:15:42;14.05;;;7.45;;
6434;SDS011;3250;42.694;23.278;2023-04-21T06:18:08;10.70;;;6.60;;
6434;SDS011;3250;42.694;23.278;2023-04-21T06:20:33;8.48;;;5.47;;
6434;SDS011;3250;42.694;23.278;2023-04-21T06:22:59;11.55;;;5.50;;
6434;SDS011;3250;42.694;23.278;2023-04-21T06:25:25;9.85;;;4.72;;
6434;SDS011;3250;42.694;23.278;2023-04-21T06:27:51;9.05;;;4.85;;
6434;SDS011;3250;42.694;23.278;2023-04-21T06:30:16;9.30;;;5.15;;
6434;SDS011;3250;42.694;23.278;2023-04-21T06:32:42;12.02;;;5.50;;
6434;SDS011;3250;42.694;23.278;2023-04-21T06:35:10;13.10;;;5.18;;
6434;SDS011;3250;42.694;23.278;2023-04-21T06:37:35;8.73;;;5.95;;
6434;SDS011;3250;42.694;23.278;2023-04-21T06:40:01;16.17;;;6.25;;
6434;SDS011;3250;42.694;23.278;2023-04-21T06:42:26;8.52;;;5.43;;
6434;SDS011;3250;42.694;23.278;2023-04-21T06:44:51;10.57;;;6.55;;
6434;SDS011;3250;42.694;23.278;2023-04-21T06:47:17;12.02;;;6.40;;
6434;SDS011;3250;42.694;23.278;2023-04-21T06:49:42;8.48;;;5.40;;
6434;SDS011;3250;42.694;23.278;2023-04-21T06:52:07;9.18;;;6.22;;
6434;SDS011;3250;42.694;23.278;2023-04-21T06:54:33;12.57;;;6.82;;
6434;SDS011;3250;42.694;23.278;2023-04-21T06:56:58;10.40;;;5.90;;
6434;SDS011;3250;42.694;23.278;2023-04-21T06:59:24;8.88;;;5.90;;
6434;SDS011;3250;42.694;23.278;2023-04-21T07:01:50;15.32;;;5.90;;
6434;SDS011;3250;42.694;23.278;2023-04-21T07:04:18;7.90;;;4.72;;
6434;SDS011;3250;42.694;23.278;2023-04-21T07:06:44;13.15;;;5.47;;
6434;SDS011;3250;42.694;23.278;2023-04-21T07:09:09;8.00;;;5.20;;
6434;SDS011;3250;42.694;23.278;2023-04-21T07:11:35;9.05;;;5.05;;
6434;SDS011;3250;42.694;23.278;2023-04-21T07:14:00;7.18;;;4.88;;
6434;SDS011;3250;42.694;23.278;2023-04-21T07:16:26;11.20;;;5.28;;
6434;SDS011;3250;42.694;23.278;2023-04-21T07:18:52;7.32;;;4.72;;
6434;SDS011;3250;42.694;23.278;2023-04-21T07:21:18;7.47;;;5.22;;
6434;SDS011;3250;42.694;23.278;2023-04-21T07:23:43;7.78;;;4.90;;
6434;SDS011;3250;42.694;23.278;2023-04-21T07:26:09;9.13;;;5.80;;
6434;SDS011;3250;42.694;23.278;2023-04-21T07:28:34;13.10;;;5.82;;
6434;SDS011;3250;42.694;23.278;2023-04-21T07:30:59;6.78;;;5.30;;
6434;SDS011;3250;42.694;23.278;2023-04-21T07:33:25;8.93;;;4.90;;
6434;SDS011;3250;42.694;23.278;2023-04-21T07:35:50;9.27;;;4.72;;
6434;SDS011;3250;42.694;23.278;2023-04-21T07:38:15;7.20;;;4.32;;
6434;SDS011;3250;42.694;23.278;2023-04-21T07:40:41;8.13;;;4.30;;
6434;SDS011;3250;42.694;23.278;2023-04-21T07:43:06;8.95;;;4.40;;
6434;SDS011;3250;42.694;23.278;2023-04-21T07:45:32;4.97;;;4.20;;
6434;SDS011;3250;42.694;23.278;2023-04-21T07:47:57;10.52;;;4.57;;
6434;SDS011;3250;42.694;23.278;2023-04-21T07:50:23;7.57;;;4.28;;
6434;SDS011;3250;42.694;23.278;2023-04-21T07:52:49;8.50;;;3.83;;
6434;SDS011;3250;42.694;23.278;2023-04-21T07:55:14;8.10;;;3.90;;
6434;SDS011;3250;42.694;23.278;2023-04-21T07:57:40;5.88;;;3.72;;
6434;SDS011;3250;42.694;23.278;2023-04-21T08:00:06;7.88;;;4.90;;
6434;SDS011;3250;42.694;23.278;2023-04-21T08:02:33;9.10;;;4.50;;
6434;SDS011;3250;42.694;23.278;2023-04-21T08:04:58;6.28;;;4.68;;
6434;SDS011;3250;42.694;23.278;2023-04-21T08:07:24;9.52;;;5.05;;
6434;SDS011;3250;42.694;23.278;2023-04-21T08:09:49;13.20;;;5.45;;
6434;SDS011;3250;42.694;23.278;2023-04-21T08:12:15;16.40;;;4.85;;
6434;SDS011;3250;42.694;23.278;2023-04-21T08:14:40;10.13;;;4.97;;
6434;SDS011;3250;42.694;23.278;2023-04-21T08:17:06;8.98;;;5.63;;
6434;SDS011;3250;42.694;23.278;2023-04-21T08:19:31;9.57;;;4.97;;
6434;SDS011;3250;42.694;23.278;2023-04-21T08:21:57;11.70;;;5.10;;
6434;SDS011;3250;42.694;23.278;2023-04-21T08:24:22;6.85;;;4.10;;
6434;SDS011;3250;42.694;23.278;2023-04-21T08:26:49;5.07;;;3.63;;
6434;SDS011;3250;42.694;23.278;2023-04-21T08:29:15;13.15;;;4.30;;
6434;SDS011;3250;42.694;23.278;2023-04-21T08:31:40;6.85;;;4.15;;
6434;SDS011;3250;42.694;23.278;2023-04-21T08:34:06;6.15;;;4.15;;
6434;SDS011;3250;42.694;23.278;2023-04-21T08:36:31;7.90;;;4.50;;
6434;SDS011;3250;42.694;23.278;2023-04-21T08:38:57;6.50;;;3.83;;
6434;SDS011;3250;42.694;23.278;2023-04-21T08:41:25;9.45;;;4.50;;
6434;SDS011;3250;42.694;23.278;2023-04-21T08:43:50;7.25;;;4.47;;
6434;SDS011;3250;42.694;23.278;2023-04-21T08:46:16;7.55;;;3.90;;
6434;SDS011;3250;42.694;23.278;2023-04-21T08:48:43;7.40;;;4.35;;
6434;SDS011;3250;42.694;23.278;2023-04-21T08:51:10;8.43;;;4.30;;
6434;SDS011;3250;42.694;23.278;2023-04-21T08:53:42;8.05;;;4.78;;
6434;SDS011;3250;42.694;23.278;2023-04-21T08:56:07;7.50;;;4.25;;
6434;SDS011;3250;42.694;23.278;2023-04-21T08:58:33;5.55;;;3.90;;
6434;SDS011;3250;42.694;23.278;2023-04-21T09:00:58;8.10;;;3.83;;
6434;SDS011;3250;42.694;23.278;2023-04-21T09:03:24;9.73;;;3.60;;
6434;SDS011;3250;42.694;23.278;2023-04-21T09:05:57;4.70;;;3.03;;
6434;SDS011;3250;42.694;23.278;2023-04-21T09:08:24;8.65;;;3.53;;
6434;SDS011;3250;42.694;23.278;2023-04-21T09:10:51;12.73;;;4.07;;
6434;SDS011;3250;42.694;23.278;2023-04-21T09:13:17;4.47;;;3.70;;
6434;SDS011;3250;42.694;23.278;2023-04-21T09:15:44;9.18;;;3.22;;
6434;SDS011;3250;42.694;23.278;2023-04-21T09:18:17;6.03;;;3.47;;
6434;SDS011;3250;42.694;23.278;2023-04-21T09:20:45;5.90;;;3.80;;
6434;SDS011;3250;42.694;23.278;2023-04-21T09:23:11;6.70;;;3.47;;
6434;SDS011;3250;42.694;23.278;2023-04-21T09:25:37;12.18;;;3.78;;
6434;SDS011;3250;42.694;23.278;2023-04-21T09:28:07;5.97;;;3.88;;
6434;SDS011;3250;42.694;23.278;2023-04-21T09:30:35;4.72;;;4.03;;
6434;SDS011;3250;42.694;23.278;2023-04-21T09:33:01;4.13;;;3.17;;
6434;SDS011;3250;42.694;23.278;2023-04-21T09:35:34;4.47;;;3.72;;
6434;SDS011;3250;42.694;23.278;2023-04-21T09:38:01;4.80;;;3.13;;
6434;SDS011;3250;42.694;23.278;2023-04-21T09:40:28;6.22;;;3.65;;
6434;SDS011;3250;42.694;23.278;2023-04-21T09:42:54;8.35;;;3.70;;
6434;SDS011;3250;42.694;23.278;2023-04-21T09:45:21;8.27;;;4.10;;
6434;SDS011;3250;42.694;23.278;2023-04-21T09:47:50;7.20;;;3.95;;
6434;SDS011;3250;42.694;23.278;2023-04-21T09:50:20;8.50;;;3.35;;
6434;SDS011;3250;42.694;23.278;2023-04-21T09:52:49;6.55;;;3.17;;
6434;SDS011;3250;42.694;23.278;2023-04-21T09:55:15;5.60;;;3.20;;
6434;SDS011;3250;42.694;23.278;2023-04-21T09:57:43;7.45;;;3.63;;
6434;SDS011;3250;42.694;23.278;2023-04-21T10:00:12;8.00;;;3.75;;
6434;SDS011;3250;42.694;23.278;2023-04-21T10:02:42;7.00;;;3.90;;
6434;SDS011;3250;42.694;23.278;2023-04-21T10:05:12;5.22;;;3.90;;
6434;SDS011;3250;42.694;23.278;2023-04-21T10:07:38;7.07;;;3.15;;
6434;SDS011;3250;42.694;23.278;2023-04-21T10:10:03;8.32;;;3.40;;
6434;SDS011;3250;42.694;23.278;2023-04-21T10:12:36;9.68;;;4.18;;
6434;SDS011;3250;42.694;23.278;2023-04-21T10:15:05;6.53;;;4.20;;
6434;SDS011;3250;42.694;23.278;2023-04-21T10:17:51;14.25;;;4.30;;
6434;SDS011;3250;42.694;23.278;2023-04-21T10:20:16;6.75;;;4.47;;
6434;SDS011;3250;42.694;23.278;2023-04-21T10:22:42;7.18;;;3.65;;
6434;SDS011;3250;42.694;23.278;2023-04-21T10:25:07;9.80;;;4.00;;
6434;SDS011;3250;42.694;23.278;2023-04-21T10:27:40;8.48;;;4.53;;
6434;SDS011;3250;42.694;23.278;2023-04-21T10:30:20;9.90;;;4.57;;
6434;SDS011;3250;42.694;23.278;2023-04-21T10:32:47;6.82;;;3.83;;
6434;SDS011;3250;42.694;23.278;2023-04-21T10:35:20;5.32;;;4.00;;
6434;SDS011;3250;42.694;23.278;2023-04-21T10:37:47;5.18;;;4.03;;
6434;SDS011;3250;42.694;23.278;2023-04-21T10:42:54;6.50;;;4.00;;
6434;SDS011;3250;42.694;23.278;2023-04-21T10:45:21;8.27;;;4.55;;
6434;SDS011;3250;42.694;23.278;2023-04-21T10:47:50;10.20;;;4.53;;
6434;SDS011;3250;42.694;23.278;2023-04-21T10:50:18;8.10;;;3.92;;
6434;SDS011;3250;42.694;23.278;2023-04-21T10:52:50;14.93;;;4.47;;
6434;SDS011;3250;42.694;23.278;2023-04-21T10:55:20;8.00;;;3.60;;
6434;SDS011;3250;42.694;23.278;2023-04-21T10:57:46;6.47;;;3.90;;
6434;SDS011;3250;42.694;23.278;2023-04-21T11:00:16;6.03;;;3.10;;
6434;SDS011;3250;42.694;23.278;2023-04-21T11:02:51;10.52;;;3.30;;
6434;SDS011;3250;42.694;23.278;2023-04-21T11:05:18;4.45;;;2.97;;
6434;SDS011;3250;42.694;23.278;2023-04-21T11:07:45;11.30;;;4.00;;
6434;SDS011;3250;42.694;23.278;2023-04-21T11:10:10;4.18;;;3.00;;
6434;SDS011;3250;42.694;23.278;2023-04-21T11:12:36;6.32;;;3.10;;
6434;SDS011;3250;42.694;23.278;2023-04-21T11:15:04;7.35;;;3.45;;
6434;SDS011;3250;42.694;23.278;2023-04-21T11:17:32;3.83;;;3.33;;
6434;SDS011;3250;42.694;23.278;2023-04-21T11:19:57;7.63;;;3.13;;
6434;SDS011;3250;42.694;23.278;2023-04-21T11:22:23;5.63;;;2.97;;
6434;SDS011;3250;42.694;23.278;2023-04-21T11:24:52;7.85;;;2.50;;
6434;SDS011;3250;42.694;23.278;2023-04-21T11:27:19;3.53;;;2.90;;
6434;SDS011;3250;42.694;23.278;2023-04-21T11:29:46;6.50;;;3.15;;
6434;SDS011;3250;42.694;23.278;2023-04-21T11:32:12;8.32;;;3.80;;
6434;SDS011;3250;42.694;23.278;2023-04-21T11:34:41;8.85;;;3.33;;
6434;SDS011;3250;42.694;23.278;2023-04-21T11:37:07;7.68;;;3.67;;
6434;SDS011;3250;42.694;23.278;2023-04-21T11:39:33;4.07;;;3.22;;
6434;SDS011;3250;42.694;23.278;2023-04-21T11:41:59;3.47;;;3.03;;
6434;SDS011;3250;42.694;23.278;2023-04-21T11:44:34;4.50;;;3.05;;
6434;SDS011;3250;42.694;23.278;2023-04-21T11:47:23;5.55;;;3.92;;
6434;SDS011;3250;42.694;23.278;2023-04-21T11:49:51;11.45;;;4.70;;
6434;SDS011;3250;42.694;23.278;2023-04-21T11:52:25;4.80;;;3.03;;
6434;SDS011;3250;42.694;23.278;2023-04-21T11:55:11;3.42;;;2.63;;
6434;SDS011;3250;42.694;23.278;2023-04-21T11:57:40;3.55;;;2.65;;
6434;SDS011;3250;42.694;23.278;2023-04-21T12:00:07;10.82;;;3.83;;
6434;SDS011;3250;42.694;23.278;2023-04-21T12:02:40;6.10;;;2.78;;
6434;SDS011;3250;42.694;23.278;2023-04-21T12:05:10;5.15;;;2.47;;
6434;SDS011;3250;42.694;23.278;2023-04-21T12:07:39;5.50;;;2.38;;
6434;SDS011;3250;42.694;23.278;2023-04-21T12:10:09;5.00;;;1.95;;
6434;SDS011;3250;42.694;23.278;2023-04-21T12:12:39;4.47;;;2.20;;
6434;SDS011;3250;42.694;23.278;2023-04-21T12:15:06;6.85;;;3.65;;
6434;SDS011;3250;42.694;23.278;2023-04-21T12:17:43;5.25;;;3.13;;
6434;SDS011;3250;42.694;23.278;2023-04-21T12:20:09;5.70;;;3.25;;
6434;SDS011;3250;42.694;23.278;2023-04-21T12:22:35;5.20;;;3.30;;
6434;SDS011;3250;42.694;23.278;2023-04-21T12:25:00;7.00;;;4.00;;
6434;SDS011;3250;42.694;23.278;2023-04-21T12:27:26;6.82;;;3.85;;
6434;SDS011;3250;42.694;23.278;2023-04-21T12:29:52;7.65;;;3.42;;
6434;SDS011;3250;42.694;23.278;2023-04-21T12:32:18;7.38;;;3.10;;
6434;SDS011;3250;42.694;23.278;2023-04-21T12:34:45;3.75;;;3.20;;
6434;SDS011;3250;42.694;23.278;2023-04-21T12:37:10;10.15;;;3.92;;
6434;SDS011;3250;42.694;23.278;2023-04-21T12:39:35;9.18;;;4.07;;
6434;SDS011;3250;42.694;23.278;2023-04-21T12:42:01;5.55;;;3.45;;
6434;SDS011;3250;42.694;23.278;2023-04-21T12:44:26;8.32;;;4.07;;
6434;SDS011;3250;42.694;23.278;2023-04-21T12:46:52;5.38;;;3.55;;
6434;SDS011;3250;42.694;23.278;2023-04-21T12:49:18;6.57;;;3.00;;
6434;SDS011;3250;42.694;23.278;2023-04-21T12:51:43;6.78;;;3.45;;
6434;SDS011;3250;42.694;23.278;2023-04-21T12:54:10;10.15;;;3.42;;
6434;SDS011;3250;42.694;23.278;2023-04-21T12:56:36;6.20;;;3.47;;
6434;SDS011;3250;42.694;23.278;2023-04-21T12:59:04;4.97;;;3.67;;
6434;SDS011;3250;42.694;23.278;2023-04-21T13:01:34;5.50;;;3.78;;
6434;SDS011;3250;42.694;23.278;2023-04-21T13:03:59;5.30;;;3.22;;
6434;SDS011;3250;42.694;23.278;2023-04-21T13:06:25;8.50;;;3.58;;
6434;SDS011;3250;42.694;23.278;2023-04-21T13:08:52;12.02;;;5.90;;
6434;SDS011;3250;42.694;23.278;2023-04-21T13:11:17;4.82;;;3.17;;
6434;SDS011;3250;42.694;23.278;2023-04-21T13:13:42;4.57;;;3.10;;
6434;SDS011;3250;42.694;23.278;2023-04-21T13:16:08;6.47;;;2.90;;
6434;SDS011;3250;42.694;23.278;2023-04-21T13:18:33;6.05;;;3.25;;
6434;SDS011;3250;42.694;23.278;2023-04-21T13:20:59;10.35;;;3.55;;
6434;SDS011;3250;42.694;23.278;2023-04-21T13:23:25;6.28;;;3.78;;
6434;SDS011;3250;42.694;23.278;2023-04-21T13:25:51;5.75;;;3.25;;
6434;SDS011;3250;42.694;23.278;2023-04-21T13:28:17;5.60;;;3.67;;
6434;SDS011;3250;42.694;23.278;2023-04-21T13:30:43;3.20;;;2.90;;
6434;SDS011;3250;42.694;23.278;2023-04-21T13:33:09;5.88;;;3.65;;
6434;SDS011;3250;42.694;23.278;2023-04-21T13:35:35;6.80;;;4.32;;
6434;SDS011;3250;42.694;23.278;2023-04-21T13:38:00;5.35;;;3.63;;
6434;SDS011;3250;42.694;23.278;2023-04-21T13:40:26;9.13;;;4.00;;
6434;SDS011;3250;42.694;23.278;2023-04-21T13:42:51;9.18;;;3.90;;
6434;SDS011;3250;42.694;23.278;2023-04-21T13:45:17;7.25;;;4.40;;
6434;SDS011;3250;42.694;23.278;2023-04-21T13:47:43;13.38;;;5.28;;
6434;SDS011;3250;42.694;23.278;2023-04-21T13:50:08;14.70;;;5.95;;
6434;SDS011;3250;42.694;23.278;2023-04-21T13:52:34;7.05;;;4.63;;
6434;SDS011;3250;42.694;23.278;2023-04-21T13:55:00;11.60;;;5.18;;
6434;SDS011;3250;42.694;23.278;2023-04-21T13:57:27;10.20;;;5.22;;
6434;SDS011;3250;42.694;23.278;2023-04-21T13:59:52;4.97;;;3.80;;
6434;SDS011;3250;42.694;23.278;2023-04-21T14:02:18;11.00;;;3.55;;
6434;SDS011;3250;42.694;23.278;2023-04-21T14:04:47;11.70;;;3.75;;
6434;SDS011;3250;42.694;23.278;2023-04-21T14:07:12;13.40;;;3.70;;
6434;SDS011;3250;42.694;23.278;2023-04-21T14:09:41;12.70;;;4.38;;
6434;SDS011;3250;42.694;23.278;2023-04-21T14:12:07;7.57;;;4.32;;
6434;SDS011;3250;42.694;23.278;2023-04-21T14:14:34;6.53;;;3.55;;
6434;SDS011;3250;42.694;23.278;2023-04-21T14:16:59;8.90;;;3.88;;
6434;SDS011;3250;42.694;23.278;2023-04-21T14:19:25;6.53;;;3.38;;
6434;SDS011;3250;42.694;23.278;2023-04-21T14:21:50;8.15;;;3.70;;
6434;SDS011;3250;42.694;23.278;2023-04-21T14:24:16;5.60;;;3.88;;
6434;SDS011;3250;42.694;23.278;2023-04-21T14:26:41;7.85;;;4.28;;
6434;SDS011;3250;42.694;23.278;2023-04-21T14:29:07;7.40;;;4.45;;
6434;SDS011;3250;42.694;23.278;2023-04-21T14:31:32;15.07;;;5.03;;
6434;SDS011;3250;42.694;23.278;2023-04-21T14:33:58;15.73;;;5.78;;
6434;SDS011;3250;42.694;23.278;2023-04-21T14:36:23;5.07;;;4.43;;
6434;SDS011;3250;42.694;23.278;2023-04-21T14:38:49;8.15;;;4.00;;
6434;SDS011;3250;42.694;23.278;2023-04-21T14:41:15;8.13;;;3.60;;
6434;SDS011;3250;42.694;23.278;2023-04-21T14:43:40;5.25;;;3.83;;
6434;SDS011;3250;42.694;23.278;2023-04-21T14:46:05;8.65;;;4.70;;
6434;SDS011;3250;42.694;23.278;2023-04-21T14:48:31;9.00;;;4.40;;
6434;SDS011;3250;42.694;23.278;2023-04-21T14:50:57;8.63;;;3.70;;
6434;SDS011;3250;42.694;23.278;2023-04-21T14:53:22;5.80;;;4.30;;